Time;durP1;ratioP1;P1;durP2;ratioP2;P2;SDS_P1;SDS_P2;PMS_P1;PMS_P2;Temp;Humidity;BMP_temperature;BMP_pressure;BME280_temperature;BME280_humidity;BME280_pressure;Samples;Min_cycle;Max_cycle;Signal;HPM_P1;HPM_P2
2023/03/23 00:02:10;;;;;;;;;;;;;;;;;;136510;1288;22556;-83
2023/03/23 00:05:13;;;;;;;;;;;;;;;;;;136509;1288;22171;-83
2023/03/23 00:08:15;;;;;;;;;;;;;;;;;;136511;1288;22258;-85
2023/03/23 00:11:18;;;;;;;;;;;;;;;;;;136519;1288;22259;-82
2023/03/23 00:14:22;;;;;;;;;;;;;;;;;;136500;1288;22354;-83
2023/03/23 00:17:25;;;;;;;;;;;;;;;;;;136533;1288;22710;-83
2023/03/23 00:20:39;;;;;;;;;;;;;;;;;;136541;1288;22790;-84
2023/03/23 00:23:44;;;;;;;;;;;;;;;;;;136533;1288;22272;-82
2023/03/23 00:26:47;;;;;;;;;;;;;;;;;;136549;1285;22366;-82
2023/03/23 00:29:52;;;;;;;;;;;;;;;;;;136538;1288;22191;-81
2023/03/23 00:32:54;;;;;;;;;;;;;;;;;;136352;1288;277254;-84
2023/03/23 00:35:57;;;;;;;;;;;;;;;;;;136567;1289;22260;-82
2023/03/23 00:39:01;;;;;;;;;;;;;;;;;;136549;1288;22330;-84
2023/03/23 00:42:03;;;;;;;;;;;;;;;;;;136553;1288;22407;-82
2023/03/23 00:45:10;;;;;;;;;;;;;;;;;;136544;1288;22283;-82
2023/03/23 00:48:13;;;;;;;;;;;;;;;;;;136551;1288;22276;-83
2023/03/23 00:51:16;;;;;;;;;;;;;;;;;;136549;1288;22181;-82
2023/03/23 00:54:21;;;;;;;;;;;;;;;;;;136530;1288;22219;-83
2023/03/23 00:57:24;;;;;;;;;;;;;;;;;;136537;1288;22239;-82
2023/03/23 01:00:26;;;;;;;;;;;;;;;;;;136510;1289;22337;-83
2023/03/23 01:03:29;;;;;;;;;;;;;;;;;;136519;1288;22181;-82
2023/03/23 01:06:31;;;;;;;;;;;;;;;;;;136524;1289;22209;-82
2023/03/23 01:09:36;;;;;;;;;;;;;;;;;;136447;1288;22355;-82
2023/03/23 01:12:38;;;;;;;;;;;;;;;;;;136494;1288;22445;-82
2023/03/23 01:15:41;;;;;;;;;;;;;;;;;;136490;1288;22798;-81
2023/03/23 01:18:44;;;;;;;;;;;;;;;;;;136535;1288;22363;-83
2023/03/23 01:21:46;;;;;;;;;;;;;;;;;;136531;1288;22324;-82
2023/03/23 01:24:48;;;;;;;;;;;;;;;;;;136528;1288;22347;-82
2023/03/23 01:27:51;;;;;;;;;;;;;;;;;;136528;1288;22266;-82
2023/03/23 01:30:53;;;;;;;;;;;;;;;;;;136506;1288;22424;-82
2023/03/23 01:33:56;;;;;;;;;;;;;;;;;;136508;1288;22336;-82
2023/03/23 01:36:58;;;;;;;;;;;;;;;;;;136533;1288;22359;-82
2023/03/23 01:40:01;;;;;;;;;;;;;;;;;;136523;1288;22737;-82
2023/03/23 01:43:03;;;;;;;;;;;;;;;;;;136522;1288;22851;-81
2023/03/23 01:46:06;;;;;;;;;;;;;;;;;;136505;1288;22288;-81
2023/03/23 01:49:09;;;;;;;;;;;;;;;;;;136536;1288;22304;-82
2023/03/23 01:52:13;;;;;;;;;;;;;;;;;;136533;1289;22708;-82
2023/03/23 01:55:15;;;;;;;;;;;;;;;;;;136528;1288;22779;-82
2023/03/23 01:58:18;;;;;;;;;;;;;;;;;;136529;1289;22792;-81
2023/03/23 02:01:21;;;;;;;;;;;;;;;;;;136520;1289;22241;-82
2023/03/23 02:04:23;;;;;;;;;;;;;;;;;;136529;1288;22322;-82
2023/03/23 02:07:26;;;;;;;;;;;;;;;;;;136559;1288;22273;-82
2023/03/23 02:10:28;;;;;;;;;;;;;;;;;;136554;1288;22736;-82
2023/03/23 02:13:30;;;;;;;;;;;;;;;;;;136531;1288;22435;-82
2023/03/23 02:16:33;;;;;;;;;;;;;;;;;;136503;1289;22968;-82
2023/03/23 02:19:36;;;;;;;;;;;;;;;;;;136533;1289;22297;-83
2023/03/23 02:22:39;;;;;;;;;;;;;;;;;;136529;1289;22261;-81
2023/03/23 02:25:41;;;;;;;;;;;;;;;;;;136487;1289;22291;-81
2023/03/23 02:28:43;;;;;;;;;;;;;;;;;;136515;1288;22706;-83
2023/03/23 02:31:46;;;;;;;;;;;;;;;;;;136509;1288;22644;-82
2023/03/23 02:34:48;;;;;;;;;;;;;;;;;;136489;1288;22299;-82
2023/03/23 02:37:51;;;;;;;;;;;;;;;;;;136513;1288;22297;-82
2023/03/23 02:40:53;;;;;;;;;;;;;;;;;;136523;1288;22764;-82
2023/03/23 02:43:58;;;;;;;;;;;;;;;;;;136512;1286;22924;-82
2023/03/23 02:47:00;;;;;;;;;;;;;;;;;;136504;1288;22240;-81
2023/03/23 02:50:05;;;;;;;;;;;;;;;;;;136521;1288;23046;-82
2023/03/23 02:53:07;;;;;;;;;;;;;;;;;;136521;1288;22222;-82
2023/03/23 02:56:13;;;;;;;;;;;;;;;;;;136499;1288;22599;-82
2023/03/23 02:59:15;;;;;;;;;;;;;;;;;;136525;1288;22228;-80
2023/03/23 03:02:18;;;;;;;;;;;;;;;;;;136533;1279;22251;-82
2023/03/23 03:05:20;;;;;;;;;;;;;;;;;;136514;1288;22181;-82
2023/03/23 03:08:25;;;;;;;;;;;;;;;;;;136534;1288;22328;-82
2023/03/23 03:11:27;;;;;;;;;;;;;;;;;;136525;1288;22186;-82
2023/03/23 03:14:30;;;;;;;;;;;;;;;;;;136529;1288;22693;-82
2023/03/23 03:17:32;;;;;;;;;;;;;;;;;;136511;1288;22336;-82
2023/03/23 03:20:37;;;;;;;;;;;;;;;;;;136526;1288;22249;-83
2023/03/23 03:23:41;;;;;;;;;;;;;;;;;;136538;1288;22280;-82
2023/03/23 03:26:47;;;;;;;;;;;;;;;;;;136521;1288;22299;-81
2023/03/23 03:29:50;;;;;;;;;;;;;;;;;;136522;1288;22271;-82
2023/03/23 03:32:53;;;;;;;;;;;;;;;;;;136528;1288;22279;-82
2023/03/23 03:35:55;;;;;;;;;;;;;;;;;;136532;1288;22188;-81
2023/03/23 03:38:59;;;;;;;;;;;;;;;;;;136538;1288;22237;-81
2023/03/23 03:42:01;;;;;;;;;;;;;;;;;;136500;1288;22394;-82
2023/03/23 03:45:03;;;;;;;;;;;;;;;;;;136523;1288;22435;-81
2023/03/23 03:48:06;;;;;;;;;;;;;;;;;;136526;1288;22337;-83
2023/03/23 03:51:09;;;;;;;;;;;;;;;;;;136523;1288;22591;-83
2023/03/23 03:54:11;;;;;;;;;;;;;;;;;;136541;1288;22432;-82
2023/03/23 03:57:14;;;;;;;;;;;;;;;;;;136527;1288;22277;-82
2023/03/23 04:00:16;;;;;;;;;;;;;;;;;;136514;1288;22257;-83
2023/03/23 04:03:21;;;;;;;;;;;;;;;;;;136517;1288;22721;-81
2023/03/23 04:06:27;;;;;;;;;;;;;;;;;;136524;1288;22328;-82
2023/03/23 04:09:31;;;;;;;;;;;;;;;;;;136446;1288;22217;-82
2023/03/23 04:12:33;;;;;;;;;;;;;;;;;;136524;1288;22467;-82
2023/03/23 04:15:38;;;;;;;;;;;;;;;;;;136532;1288;22197;-82
2023/03/23 04:18:42;;;;;;;;;;;;;;;;;;136538;1288;22290;-84
2023/03/23 04:21:48;;;;;;;;;;;;;;;;;;136534;1288;22237;-82
2023/03/23 04:24:51;;;;;;;;;;;;;;;;;;136502;1288;22265;-83
2023/03/23 04:27:54;;;;;;;;;;;;;;;;;;136524;1288;22305;-83
2023/03/23 04:30:56;;;;;;;;;;;;;;;;;;136486;1288;22464;-82
2023/03/23 04:33:59;;;;;;;;;;;;;;;;;;136433;1288;22331;-81
2023/03/23 04:37:02;;;;;;;;;;;;;;;;;;136503;1288;22327;-82
2023/03/23 04:40:11;;;;;;;;;;;;;;;;;;136513;1288;22425;-83
2023/03/23 04:43:14;;;;;;;;;;;;;;;;;;136503;1288;22400;-83
2023/03/23 04:46:17;;;;;;;;;;;;;;;;;;136481;1288;22757;-82
2023/03/23 04:49:21;;;;;;;;;;;;;;;;;;136476;1288;22335;-82
2023/03/23 04:52:24;;;;;;;;;;;;;;;;;;136444;1286;22207;-82
2023/03/23 04:55:27;;;;;;;;;;;;;;;;;;136407;1288;22300;-81
2023/03/23 04:58:33;;;;;;;;;;;;;;;;;;136426;1288;22364;-81
2023/03/23 05:01:37;;;;;;;;;;;;;;;;;;136416;1288;22174;-82
2023/03/23 05:04:40;;;;;;;;;;;;;;;;;;136418;1289;22745;-81
2023/03/23 05:07:42;;;;;;;;;;;;;;;;;;136446;1289;22342;-81
2023/03/23 05:10:45;;;;;;;;;;;;;;;;;;136461;1288;22258;-82
2023/03/23 05:13:48;;;;;;;;;;;;;;;;;;136411;1289;22356;-81
2023/03/23 05:16:51;;;;;;;;;;;;;;;;;;136442;1289;22417;-80
2023/03/23 05:19:56;;;;;;;;;;;;;;;;;;136476;1288;22255;-82
2023/03/23 05:22:59;;;;;;;;;;;;;;;;;;136438;1289;22939;-81
2023/03/23 05:26:02;;;;;;;;;;;;;;;;;;136453;1289;22288;-82
2023/03/23 05:29:04;;;;;;;;;;;;;;;;;;136434;1288;23071;-80
2023/03/23 05:32:07;;;;;;;;;;;;;;;;;;136448;1288;22404;-80
2023/03/23 05:35:09;;;;;;;;;;;;;;;;;;136450;1288;22266;-81
2023/03/23 05:38:12;;;;;;;;;;;;;;;;;;136446;1288;22607;-80
2023/03/23 05:41:15;;;;;;;;;;;;;;;;;;136420;1270;22415;-81
2023/03/23 05:44:17;;;;;;;;;;;;;;;;;;136461;1289;22350;-81
2023/03/23 05:47:20;;;;;;;;;;;;;;;;;;136455;1289;22304;-81
2023/03/23 05:50:22;;;;;;;;;;;;;;;;;;136258;1289;22433;-81
2023/03/23 05:53:25;;;;;;;;;;;;;;;;;;136413;1288;22255;-80
2023/03/23 05:56:28;;;;;;;;;;;;;;;;;;136407;1282;22222;-81
2023/03/23 05:59:30;;;;;;;;;;;;;;;;;;136409;1288;22258;-80
2023/03/23 06:02:33;;;;;;;;;;;;;;;;;;136342;1288;22419;-82
2023/03/23 06:05:36;;;;;;;;;;;;;;;;;;136435;1276;22163;-79
2023/03/23 06:08:39;;;;;;;;;;;;;;;;;;136421;1288;22253;-81
2023/03/23 06:11:41;;;;;;;;;;;;;;;;;;136459;1288;22433;-79
2023/03/23 06:14:44;;;;;;;;;;;;;;;;;;136481;1288;22267;-79
2023/03/23 06:17:50;;;;;;;;;;;;;;;;;;136471;1288;22290;-80
2023/03/23 06:20:52;;;;;;;;;;;;;;;;;;136516;1288;22308;-81
2023/03/23 06:23:55;;;;;;;;;;;;;;;;;;136479;1288;22178;-79
2023/03/23 06:26:59;;;;;;;;;;;;;;;;;;136478;1288;22744;-79
2023/03/23 06:30:02;;;;;;;;;;;;;;;;;;136491;1288;22322;-78
2023/03/23 06:33:05;;;;;;;;;;;;;;;;;;136473;1288;22652;-79
2023/03/23 06:36:07;;;;;;;;;;;;;;;;;;136458;1288;22257;-80
2023/03/23 06:39:10;;;;;;;;;;;;;;;;;;136460;1288;22169;-78
2023/03/23 06:42:13;;;;;;;;;;;;;;;;;;136424;1283;22992;-78
2023/03/23 06:45:16;;;;;;;;;;;;;;;;;;136386;1286;22380;-79
2023/03/23 06:48:18;;;;;;;;;;;;;;;;;;136398;1288;22252;-79
2023/03/23 06:51:21;;;;;;;;;;;;;;;;;;136428;1288;22679;-79
2023/03/23 06:54:23;;;;;;;;;;;;;;;;;;136396;1288;22649;-79
2023/03/23 06:57:26;;;;;;;;;;;;;;;;;;136407;1288;22322;-81
2023/03/23 07:00:29;;;;;;;;;;;;;;;;;;136449;1288;22276;-81
2023/03/23 07:03:32;;;;;;;;;;;;;;;;;;136454;1288;22192;-79
2023/03/23 07:06:35;;;;;;;;;;;;;;;;;;136455;1288;22273;-80
2023/03/23 07:09:37;;;;;;;;;;;;;;;;;;136456;1288;22337;-78
2023/03/23 07:12:40;;;;;;;;;;;;;;;;;;136431;1288;22415;-79
2023/03/23 07:15:43;;;;;;;;;;;;;;;;;;136450;1288;22301;-81
2023/03/23 07:18:46;;;;;;;;;;;;;;;;;;136438;1288;22243;-80
2023/03/23 07:21:48;;;;;;;;;;;;;;;;;;136427;1288;22263;-81
2023/03/23 07:24:51;;;;;;;;;;;;;;;;;;136420;1288;22325;-81
2023/03/23 07:27:53;;;;;;;;;;;;;;;;;;136410;1288;22688;-81
2023/03/23 07:30:56;;;;;;;;;;;;;;;;;;136412;1288;23223;-80
2023/03/23 07:33:58;;;;;;;;;;;;;;;;;;136457;1289;22264;-80
2023/03/23 07:37:01;;;;;;;;;;;;;;;;;;136425;1288;22781;-81
2023/03/23 07:40:14;;;;;;;;;;;;;;;;;;136434;1288;22257;-79
2023/03/23 07:43:16;;;;;;;;;;;;;;;;;;136458;1288;22457;-80
2023/03/23 07:46:19;;;;;;;;;;;;;;;;;;136456;1288;22229;-79
2023/03/23 07:49:21;;;;;;;;;;;;;;;;;;136479;1288;22755;-80
2023/03/23 07:52:25;;;;;;;;;;;;;;;;;;136470;1288;22352;-80
2023/03/23 07:55:28;;;;;;;;;;;;;;;;;;136475;1289;22229;-81
2023/03/23 07:58:30;;;;;;;;;;;;;;;;;;136501;1289;22273;-80
2023/03/23 08:01:33;;;;;;;;;;;;;;;;;;136462;1289;22735;-79
2023/03/23 08:04:37;;;;;;;;;;;;;;;;;;136474;1288;22621;-79
2023/03/23 08:07:39;;;;;;;;;;;;;;;;;;136481;1289;22364;-80
2023/03/23 08:10:42;;;;;;;;;;;;;;;;;;136457;1288;22634;-79
2023/03/23 08:13:44;;;;;;;;;;;;;;;;;;136481;1289;22389;-79
2023/03/23 08:16:48;;;;;;;;;;;;;;;;;;136445;1289;22847;-80
2023/03/23 08:19:52;;;;;;;;;;;;;;;;;;136479;1288;22556;-79
2023/03/23 08:22:55;;;;;;;;;;;;;;;;;;136453;1288;22193;-79
2023/03/23 08:25:57;;;;;;;;;;;;;;;;;;136460;1289;22306;-80
2023/03/23 08:28:59;;;;;;;;;;;;;;;;;;136467;1288;22343;-80
2023/03/23 08:32:03;;;;;;;;;;;;;;;;;;136484;1288;22588;-79
2023/03/23 08:35:05;;;;;;;;;;;;;;;;;;136433;1288;22337;-79
2023/03/23 08:38:07;;;;;;;;;;;;;;;;;;136429;1288;22785;-79
2023/03/23 08:41:10;;;;;;;;;;;;;;;;;;136450;1288;22338;-79
2023/03/23 08:44:13;;;;;;;;;;;;;;;;;;136460;1289;22389;-78
2023/03/23 08:47:15;;;;;;;;;;;;;;;;;;136499;1289;22338;-80
2023/03/23 08:50:18;;;;;;;;;;;;;;;;;;136505;1288;22285;-80
2023/03/23 08:53:21;;;;;;;;;;;;;;;;;;136490;1288;22197;-81
2023/03/23 08:56:27;;;;;;;;;;;;;;;;;;136503;1288;23015;-80
2023/03/23 08:59:29;;;;;;;;;;;;;;;;;;136551;1288;22273;-79
2023/03/23 09:02:33;;;;;;;;;;;;;;;;;;136494;1276;22759;-80
2023/03/23 09:05:38;;;;;;;;;;;;;;;;;;136488;1282;22204;-80
2023/03/23 09:08:41;;;;;;;;;;;;;;;;;;136498;1288;22205;-80
2023/03/23 09:11:43;;;;;;;;;;;;;;;;;;136504;1288;22413;-79
2023/03/23 09:14:46;;;;;;;;;;;;;;;;;;136469;1288;22345;-79
2023/03/23 09:17:49;;;;;;;;;;;;;;;;;;136448;1289;22291;-80
2023/03/23 09:20:51;;;;;;;;;;;;;;;;;;136461;1288;22426;-78
2023/03/23 09:23:58;;;;;;;;;;;;;;;;;;136427;1288;22267;-79
2023/03/23 09:27:00;;;;;;;;;;;;;;;;;;136434;1288;22271;-79
2023/03/23 09:30:06;;;;;;;;;;;;;;;;;;136387;1288;22297;-80
2023/03/23 09:33:09;;;;;;;;;;;;;;;;;;136374;1288;22298;-80
2023/03/23 09:36:13;;;;;;;;;;;;;;;;;;136402;1288;22278;-80
2023/03/23 09:39:16;;;;;;;;;;;;;;;;;;136429;1288;22695;-80
2023/03/23 09:42:19;;;;;;;;;;;;;;;;;;136428;1288;22451;-79
2023/03/23 09:45:21;;;;;;;;;;;;;;;;;;136459;1288;22352;-79
2023/03/23 09:48:25;;;;;;;;;;;;;;;;;;136471;1288;22736;-81
2023/03/23 09:51:28;;;;;;;;;;;;;;;;;;136468;1288;22273;-79
2023/03/23 09:54:31;;;;;;;;;;;;;;;;;;136449;1289;22264;-79
2023/03/23 09:57:34;;;;;;;;;;;;;;;;;;136463;1288;22256;-80
2023/03/23 10:00:36;;;;;;;;;;;;;;;;;;136443;1288;22194;-79
2023/03/23 10:03:38;;;;;;;;;;;;;;;;;;136473;1288;22290;-80
2023/03/23 10:06:41;;;;;;;;;;;;;;;;;;136499;1288;22200;-79
2023/03/23 10:09:43;;;;;;;;;;;;;;;;;;136479;1288;22285;-79
2023/03/23 10:12:46;;;;;;;;;;;;;;;;;;136497;1288;22597;-80
2023/03/23 10:15:49;;;;;;;;;;;;;;;;;;136468;1288;22264;-80
2023/03/23 10:18:52;;;;;;;;;;;;;;;;;;136446;1288;22779;-80
2023/03/23 10:21:56;;;;;;;;;;;;;;;;;;136441;1283;22301;-79
2023/03/23 10:24:59;;;;;;;;;;;;;;;;;;136442;1288;22603;-79
2023/03/23 10:28:03;;;;;;;;;;;;;;;;;;136413;1288;22296;-82
2023/03/23 10:31:05;;;;;;;;;;;;;;;;;;136395;1286;22208;-80
2023/03/23 10:34:08;;;;;;;;;;;;;;;;;;136434;1288;22268;-80
2023/03/23 10:37:10;;;;;;;;;;;;;;;;;;136437;1288;22275;-81
2023/03/23 10:40:13;;;;;;;;;;;;;;;;;;136433;1288;22268;-81
2023/03/23 10:43:16;;;;;;;;;;;;;;;;;;136443;1288;22478;-80
2023/03/23 10:46:18;;;;;;;;;;;;;;;;;;136432;1288;22278;-81
2023/03/23 10:49:21;;;;;;;;;;;;;;;;;;136433;1288;22292;-80
2023/03/23 10:52:24;;;;;;;;;;;;;;;;;;136452;1288;22284;-80
2023/03/23 10:55:27;;;;;;;;;;;;;;;;;;136440;1288;22330;-81
2023/03/23 10:58:32;;;;;;;;;;;;;;;;;;136474;1288;22290;-82
2023/03/23 11:01:36;;;;;;;;;;;;;;;;;;136444;1288;22165;-80
2023/03/23 11:04:39;;;;;;;;;;;;;;;;;;136415;1288;22203;-80
2023/03/23 11:07:42;;;;;;;;;;;;;;;;;;136453;1288;22294;-80
2023/03/23 11:10:45;;;;;;;;;;;;;;;;;;136448;1288;22425;-80
2023/03/23 11:13:48;;;;;;;;;;;;;;;;;;136484;1288;22455;-80
2023/03/23 11:16:54;;;;;;;;;;;;;;;;;;136449;1273;22223;-82
2023/03/23 11:19:57;;;;;;;;;;;;;;;;;;136457;1288;22258;-80
2023/03/23 11:22:59;;;;;;;;;;;;;;;;;;136464;1288;22269;-81
2023/03/23 11:26:02;;;;;;;;;;;;;;;;;;136484;1288;22322;-81
2023/03/23 11:29:04;;;;;;;;;;;;;;;;;;136448;1288;22173;-82
2023/03/23 11:32:07;;;;;;;;;;;;;;;;;;136441;1288;22339;-81
2023/03/23 11:35:11;;;;;;;;;;;;;;;;;;136468;1288;22290;-81
2023/03/23 11:38:13;;;;;;;;;;;;;;;;;;136460;1288;22352;-81
2023/03/23 11:41:16;;;;;;;;;;;;;;;;;;136466;1288;22414;-81
2023/03/23 11:44:18;;;;;;;;;;;;;;;;;;136436;1288;22729;-81
2023/03/23 11:47:21;;;;;;;;;;;;;;;;;;136477;1288;22165;-81
2023/03/23 11:50:24;;;;;;;;;;;;;;;;;;136457;1288;22278;-82
2023/03/23 11:53:27;;;;;;;;;;;;;;;;;;136466;1288;22271;-82
2023/03/23 11:56:29;;;;;;;;;;;;;;;;;;136505;1288;22349;-83
2023/03/23 11:59:33;;;;;;;;;;;;;;;;;;136505;1288;22237;-83
2023/03/23 12:02:35;;;;;;;;;;;;;;;;;;136523;1288;22280;-82
2023/03/23 12:05:40;;;;;;;;;;;;;;;;;;136512;1288;22172;-83
2023/03/23 12:08:43;;;;;;;;;;;;;;;;;;136504;1288;22185;-83
2023/03/23 12:11:46;;;;;;;;;;;;;;;;;;136482;1289;22402;-83
2023/03/23 12:14:48;;;;;;;;;;;;;;;;;;136495;1288;22282;-84
2023/03/23 12:17:51;;;;;;;;;;;;;;;;;;136494;1288;22267;-84
2023/03/23 12:20:53;;;;;;;;;;;;;;;;;;136487;1276;22214;-83
2023/03/23 12:23:56;;;;;;;;;;;;;;;;;;136485;1289;22328;-83
2023/03/23 12:26:58;;;;;;;;;;;;;;;;;;136497;1288;22178;-84
2023/03/23 12:30:07;;;;;;;;;;;;;;;;;;136526;1286;22196;-85
2023/03/23 12:33:09;;;;;;;;;;;;;;;;;;136338;1288;226878;-84
2023/03/23 12:36:12;;;;;;;;;;;;;;;;;;136485;1289;22192;-84
2023/03/23 12:39:19;;;;;;;;;;;;;;;;;;136290;1289;22430;-85
2023/03/23 12:42:23;;;;;;;;;;;;;;;;;;136450;1289;22585;-83
2023/03/23 12:45:26;;;;;;;;;;;;;;;;;;136457;1288;22765;-84
2023/03/23 12:48:30;;;;;;;;;;;;;;;;;;136318;1289;22389;-84
2023/03/23 12:51:33;;;;;;;;;;;;;;;;;;136463;1289;22344;-84
2023/03/23 12:54:36;;;;;;;;;;;;;;;;;;136423;1288;22219;-83
2023/03/23 12:57:39;;;;;;;;;;;;;;;;;;136458;1288;22258;-82
2023/03/23 13:00:41;;;;;;;;;;;;;;;;;;136441;1289;22813;-82
2023/03/23 13:03:44;;;;;;;;;;;;;;;;;;136456;1289;22897;-84
2023/03/23 13:06:47;;;;;;;;;;;;;;;;;;136438;1288;22388;-83
2023/03/23 13:09:49;;;;;;;;;;;;;;;;;;136462;1288;23042;-83
2023/03/23 13:12:52;;;;;;;;;;;;;;;;;;136475;1289;22865;-83
2023/03/23 13:15:54;;;;;;;;;;;;;;;;;;136484;1283;22272;-85
2023/03/23 13:18:57;;;;;;;;;;;;;;;;;;136471;1288;22269;-83
2023/03/23 13:21:59;;;;;;;;;;;;;;;;;;136449;1289;22227;-81
2023/03/23 13:25:02;;;;;;;;;;;;;;;;;;136401;1270;22234;-82
2023/03/23 13:28:04;;;;;;;;;;;;;;;;;;136409;1289;22291;-83
2023/03/23 13:31:09;;;;;;;;;;;;;;;;;;136371;1288;22207;-82
2023/03/23 13:34:11;;;;;;;;;;;;;;;;;;136386;1288;22241;-83
2023/03/23 13:37:15;;;;;;;;;;;;;;;;;;136399;1288;22748;-86
2023/03/23 13:40:18;;;;;;;;;;;;;;;;;;136430;1289;22703;-82
2023/03/23 13:43:21;;;;;;;;;;;;;;;;;;136426;1288;22474;-81
2023/03/23 13:46:24;;;;;;;;;;;;;;;;;;136455;1283;22231;-83
2023/03/23 13:49:27;;;;;;;;;;;;;;;;;;136484;1288;22889;-83
2023/03/23 13:52:30;;;;;;;;;;;;;;;;;;136475;1289;22441;-81
2023/03/23 13:55:32;;;;;;;;;;;;;;;;;;136459;1289;22322;-83
2023/03/23 13:58:35;;;;;;;;;;;;;;;;;;136480;1289;22264;-83
2023/03/23 14:01:39;;;;;;;;;;;;;;;;;;136462;1288;22711;-81
2023/03/23 14:04:41;;;;;;;;;;;;;;;;;;136492;1289;22676;-81
2023/03/23 14:07:47;;;;;;;;;;;;;;;;;;136457;1289;22704;-82
2023/03/23 14:10:50;;;;;;;;;;;;;;;;;;136494;1288;22168;-83
2023/03/23 14:13:52;;;;;;;;;;;;;;;;;;136477;1282;22396;-85
2023/03/23 14:16:55;;;;;;;;;;;;;;;;;;136444;1288;22338;-86
2023/03/23 14:19:57;;;;;;;;;;;;;;;;;;136439;1288;22230;-85
2023/03/23 14:23:00;;;;;;;;;;;;;;;;;;136423;1288;22128;-84
2023/03/23 14:26:07;;;;;;;;;;;;;;;;;;136418;1288;22171;-83
2023/03/23 14:29:09;;;;;;;;;;;;;;;;;;136414;1288;22232;-83
2023/03/23 14:32:12;;;;;;;;;;;;;;;;;;136461;1288;22301;-85
2023/03/23 14:35:14;;;;;;;;;;;;;;;;;;136451;1288;22183;-83
2023/03/23 14:38:18;;;;;;;;;;;;;;;;;;136444;1288;22303;-83
2023/03/23 14:41:21;;;;;;;;;;;;;;;;;;136417;1288;22422;-81
2023/03/23 14:44:24;;;;;;;;;;;;;;;;;;136481;1288;22358;-83
2023/03/23 14:47:26;;;;;;;;;;;;;;;;;;136453;1288;22219;-83
2023/03/23 14:50:29;;;;;;;;;;;;;;;;;;136472;1288;22268;-83
2023/03/23 14:53:32;;;;;;;;;;;;;;;;;;136484;1288;22907;-83
2023/03/23 14:56:35;;;;;;;;;;;;;;;;;;136498;1289;22176;-82
2023/03/23 14:59:37;;;;;;;;;;;;;;;;;;136497;1288;22825;-82
2023/03/23 15:02:40;;;;;;;;;;;;;;;;;;136497;1288;22766;-83
2023/03/23 15:05:42;;;;;;;;;;;;;;;;;;136526;1288;22278;-84
2023/03/23 15:08:45;;;;;;;;;;;;;;;;;;136498;1277;22173;-83
2023/03/23 15:11:47;;;;;;;;;;;;;;;;;;136489;1288;22560;-84
2023/03/23 15:14:50;;;;;;;;;;;;;;;;;;136503;1288;22251;-83
2023/03/23 15:17:52;;;;;;;;;;;;;;;;;;136503;1288;22359;-83
2023/03/23 15:20:55;;;;;;;;;;;;;;;;;;136498;1288;22390;-84
2023/03/23 15:23:57;;;;;;;;;;;;;;;;;;136504;1288;22263;-83
2023/03/23 15:27:00;;;;;;;;;;;;;;;;;;136535;1288;22231;-85
2023/03/23 15:30:02;;;;;;;;;;;;;;;;;;136502;1285;22218;-84
2023/03/23 15:33:04;;;;;;;;;;;;;;;;;;136488;1288;22309;-83
2023/03/23 15:36:07;;;;;;;;;;;;;;;;;;136505;1288;22185;-83
2023/03/23 15:39:09;;;;;;;;;;;;;;;;;;136505;1288;22297;-82
2023/03/23 15:42:12;;;;;;;;;;;;;;;;;;136487;1288;22408;-84
2023/03/23 15:45:14;;;;;;;;;;;;;;;;;;136524;1288;22212;-83
2023/03/23 15:48:16;;;;;;;;;;;;;;;;;;136513;1288;23043;-83
2023/03/23 15:51:19;;;;;;;;;;;;;;;;;;136516;1288;22348;-84
2023/03/23 15:54:22;;;;;;;;;;;;;;;;;;136492;1288;22171;-84
2023/03/23 15:57:24;;;;;;;;;;;;;;;;;;136526;1288;22353;-84
2023/03/23 16:00:27;;;;;;;;;;;;;;;;;;136503;1288;22229;-85
2023/03/23 16:03:29;;;;;;;;;;;;;;;;;;136513;1288;22269;-84
2023/03/23 16:06:32;;;;;;;;;;;;;;;;;;136523;1288;22758;-84
2023/03/23 16:09:35;;;;;;;;;;;;;;;;;;136491;1288;22276;-82
2023/03/23 16:12:37;;;;;;;;;;;;;;;;;;136476;1288;22388;-83
2023/03/23 16:15:40;;;;;;;;;;;;;;;;;;136481;1288;22294;-84
2023/03/23 16:18:42;;;;;;;;;;;;;;;;;;136487;1286;22234;-83
2023/03/23 16:21:45;;;;;;;;;;;;;;;;;;136519;1288;22342;-84
2023/03/23 16:24:47;;;;;;;;;;;;;;;;;;136548;1288;22439;-84
2023/03/23 16:27:53;;;;;;;;;;;;;;;;;;136539;1288;22273;-84
2023/03/23 16:30:55;;;;;;;;;;;;;;;;;;136530;1288;22215;-82
2023/03/23 16:33:58;;;;;;;;;;;;;;;;;;136528;1288;22305;-83
2023/03/23 16:37:03;;;;;;;;;;;;;;;;;;136534;1288;22229;-83
2023/03/23 16:40:05;;;;;;;;;;;;;;;;;;136524;1288;22240;-84
2023/03/23 16:43:08;;;;;;;;;;;;;;;;;;136486;1289;22545;-85
2023/03/23 16:46:10;;;;;;;;;;;;;;;;;;136523;1288;22663;-81
2023/03/23 16:49:13;;;;;;;;;;;;;;;;;;136506;1288;22323;-83
2023/03/23 16:52:18;;;;;;;;;;;;;;;;;;136529;1288;22370;-84
2023/03/23 16:55:20;;;;;;;;;;;;;;;;;;136520;1288;22395;-83
2023/03/23 16:58:22;;;;;;;;;;;;;;;;;;136549;1288;22184;-83
2023/03/23 17:01:25;;;;;;;;;;;;;;;;;;136539;1288;22647;-84
2023/03/23 17:04:27;;;;;;;;;;;;;;;;;;136508;1288;22198;-84
2023/03/23 17:07:30;;;;;;;;;;;;;;;;;;136506;1288;22260;-84
2023/03/23 17:10:32;;;;;;;;;;;;;;;;;;136485;1288;22834;-83
2023/03/23 17:13:35;;;;;;;;;;;;;;;;;;136485;1289;22243;-84
2023/03/23 17:16:42;;;;;;;;;;;;;;;;;;136505;1289;22903;-83
2023/03/23 17:19:44;;;;;;;;;;;;;;;;;;136499;1289;22424;-84
2023/03/23 17:22:47;;;;;;;;;;;;;;;;;;136486;1288;22431;-84
2023/03/23 17:25:50;;;;;;;;;;;;;;;;;;136528;1288;22741;-85
2023/03/23 17:28:52;;;;;;;;;;;;;;;;;;136509;1289;22202;-83
2023/03/23 17:31:55;;;;;;;;;;;;;;;;;;136482;1289;22306;-84
2023/03/23 17:34:57;;;;;;;;;;;;;;;;;;136493;1289;22274;-84
2023/03/23 17:38:00;;;;;;;;;;;;;;;;;;136497;1289;22200;-84
2023/03/23 17:41:05;;;;;;;;;;;;;;;;;;136492;1289;22947;-85
2023/03/23 17:44:07;;;;;;;;;;;;;;;;;;136518;1288;22882;-84
2023/03/23 17:47:10;;;;;;;;;;;;;;;;;;136531;1289;22255;-85
2023/03/23 17:50:12;;;;;;;;;;;;;;;;;;136513;1288;22211;-84
2023/03/23 17:53:15;;;;;;;;;;;;;;;;;;136509;1288;22523;-84
2023/03/23 17:56:17;;;;;;;;;;;;;;;;;;136531;1288;22264;-82
2023/03/23 17:59:20;;;;;;;;;;;;;;;;;;136524;1288;22802;-83
2023/03/23 18:02:23;;;;;;;;;;;;;;;;;;136485;1288;22247;-82
2023/03/23 18:05:26;;;;;;;;;;;;;;;;;;136476;1288;22353;-83
2023/03/23 18:08:29;;;;;;;;;;;;;;;;;;136506;1288;22198;-83
2023/03/23 18:11:31;;;;;;;;;;;;;;;;;;136469;1288;22212;-83
2023/03/23 18:14:34;;;;;;;;;;;;;;;;;;136535;1288;22280;-84
2023/03/23 18:17:36;;;;;;;;;;;;;;;;;;136526;1289;22286;-84
2023/03/23 18:20:39;;;;;;;;;;;;;;;;;;136510;1282;22200;-83
2023/03/23 18:23:44;;;;;;;;;;;;;;;;;;136486;1289;22403;-85
2023/03/23 18:26:47;;;;;;;;;;;;;;;;;;136476;1289;23010;-84
2023/03/23 18:29:49;;;;;;;;;;;;;;;;;;136462;1289;22265;-84
2023/03/23 18:32:51;;;;;;;;;;;;;;;;;;136511;1289;22251;-83
2023/03/23 18:35:54;;;;;;;;;;;;;;;;;;136511;1288;22262;-85
2023/03/23 18:38:58;;;;;;;;;;;;;;;;;;136521;1288;22761;-85
2023/03/23 18:42:00;;;;;;;;;;;;;;;;;;136523;1288;22396;-84
2023/03/23 18:45:03;;;;;;;;;;;;;;;;;;136519;1288;22203;-84
2023/03/23 18:48:08;;;;;;;;;;;;;;;;;;136518;1288;22747;-84
2023/03/23 18:51:10;;;;;;;;;;;;;;;;;;136512;1288;22320;-84
2023/03/23 18:54:13;;;;;;;;;;;;;;;;;;136415;1288;23029;-85
2023/03/23 18:57:16;;;;;;;;;;;;;;;;;;136534;1288;22220;-83
2023/03/23 19:00:20;;;;;;;;;;;;;;;;;;136534;1288;22665;-85
2023/03/23 19:03:22;;;;;;;;;;;;;;;;;;136524;1288;22439;-85
2023/03/23 19:06:25;;;;;;;;;;;;;;;;;;136517;1288;22187;-84
2023/03/23 19:09:28;;;;;;;;;;;;;;;;;;136525;1288;22566;-85
2023/03/23 19:12:30;;;;;;;;;;;;;;;;;;136474;1288;22685;-84
2023/03/23 19:15:33;;;;;;;;;;;;;;;;;;136502;1288;22238;-84
2023/03/23 19:18:35;;;;;;;;;;;;;;;;;;136518;1276;22679;-85
2023/03/23 19:21:38;;;;;;;;;;;;;;;;;;136519;1288;22264;-83
2023/03/23 19:24:41;;;;;;;;;;;;;;;;;;136508;1288;22391;-85
2023/03/23 19:27:43;;;;;;;;;;;;;;;;;;136525;1288;22443;-82
2023/03/23 19:30:45;;;;;;;;;;;;;;;;;;136514;1288;22344;-85
2023/03/23 19:33:48;;;;;;;;;;;;;;;;;;136513;1288;22174;-85
2023/03/23 19:36:51;;;;;;;;;;;;;;;;;;136505;1288;22277;-85
2023/03/23 19:39:53;;;;;;;;;;;;;;;;;;136495;1288;22271;-83
2023/03/23 19:42:56;;;;;;;;;;;;;;;;;;136517;1289;22391;-83
2023/03/23 19:45:59;;;;;;;;;;;;;;;;;;136511;1288;22705;-85
2023/03/23 19:49:02;;;;;;;;;;;;;;;;;;136476;1288;22178;-84
2023/03/23 19:52:04;;;;;;;;;;;;;;;;;;136492;1288;22202;-84
2023/03/23 19:55:07;;;;;;;;;;;;;;;;;;136496;1289;22363;-85
2023/03/23 19:58:09;;;;;;;;;;;;;;;;;;136514;1288;22137;-85
2023/03/23 20:01:12;;;;;;;;;;;;;;;;;;136526;1288;22247;-85
2023/03/23 20:04:14;;;;;;;;;;;;;;;;;;136529;1288;22211;-86
2023/03/23 20:07:17;;;;;;;;;;;;;;;;;;136539;1288;22747;-84
2023/03/23 20:10:20;;;;;;;;;;;;;;;;;;136507;1288;22553;-84
2023/03/23 20:13:22;;;;;;;;;;;;;;;;;;136518;1288;22277;-85
2023/03/23 20:16:25;;;;;;;;;;;;;;;;;;136442;1288;22295;-83
2023/03/23 20:19:28;;;;;;;;;;;;;;;;;;136477;1288;22885;-84
2023/03/23 20:22:35;;;;;;;;;;;;;;;;;;136489;1288;22390;-84
2023/03/23 20:25:37;;;;;;;;;;;;;;;;;;136444;1288;22978;-84
2023/03/23 20:28:41;;;;;;;;;;;;;;;;;;136489;1288;22276;-84